sensor_id;sensor_type;location;lat;lon;timestamp;P1;durP1;ratioP1;P2;durP2;ratioP2
7887;SDS011;3989;48.810;9.208;2023-05-17T00:01:49;4.33;;;0.90;;
7887;SDS011;3989;48.810;9.208;2023-05-17T00:04:16;2.57;;;1.13;;
7887;SDS011;3989;48.810;9.208;2023-05-17T00:06:44;1.80;;;1.00;;
7887;SDS011;3989;48.810;9.208;2023-05-17T00:09:10;1.43;;;1.33;;
7887;SDS011;3989;48.810;9.208;2023-05-17T00:11:37;2.50;;;1.13;;
7887;SDS011;3989;48.810;9.208;2023-05-17T00:14:04;1.93;;;1.30;;
7887;SDS011;3989;48.810;9.208;2023-05-17T00:16:31;1.83;;;1.00;;
7887;SDS011;3989;48.810;9.208;2023-05-17T00:18:57;1.90;;;1.37;;
7887;SDS011;3989;48.810;9.208;2023-05-17T00:21:24;1.80;;;1.00;;
7887;SDS011;3989;48.810;9.208;2023-05-17T00:23:52;1.27;;;1.23;;
7887;SDS011;3989;48.810;9.208;2023-05-17T00:26:18;2.97;;;1.07;;
7887;SDS011;3989;48.810;9.208;2023-05-17T00:28:45;0.97;;;0.90;;
7887;SDS011;3989;48.810;9.208;2023-05-17T00:31:11;1.90;;;1.40;;
7887;SDS011;3989;48.810;9.208;2023-05-17T00:33:39;3.60;;;1.17;;
7887;SDS011;3989;48.810;9.208;2023-05-17T00:36:06;1.20;;;1.10;;
7887;SDS011;3989;48.810;9.208;2023-05-17T00:38:34;3.27;;;1.30;;
7887;SDS011;3989;48.810;9.208;2023-05-17T00:41:02;1.77;;;1.20;;
7887;SDS011;3989;48.810;9.208;2023-05-17T00:43:29;2.07;;;1.10;;
7887;SDS011;3989;48.810;9.208;2023-05-17T00:45:56;0.93;;;0.93;;
7887;SDS011;3989;48.810;9.208;2023-05-17T00:48:23;3.03;;;1.17;;
7887;SDS011;3989;48.810;9.208;2023-05-17T00:50:50;2.43;;;1.90;;
7887;SDS011;3989;48.810;9.208;2023-05-17T00:53:17;2.70;;;1.20;;
7887;SDS011;3989;48.810;9.208;2023-05-17T00:55:44;1.90;;;1.20;;
7887;SDS011;3989;48.810;9.208;2023-05-17T00:58:12;1.53;;;1.20;;
7887;SDS011;3989;48.810;9.208;2023-05-17T01:00:39;2.20;;;1.23;;
7887;SDS011;3989;48.810;9.208;2023-05-17T01:03:07;3.47;;;1.13;;
7887;SDS011;3989;48.810;9.208;2023-05-17T01:05:33;1.30;;;1.03;;
7887;SDS011;3989;48.810;9.208;2023-05-17T01:08:00;1.97;;;1.07;;
7887;SDS011;3989;48.810;9.208;2023-05-17T01:10:32;3.83;;;1.47;;
7887;SDS011;3989;48.810;9.208;2023-05-17T01:13:08;2.47;;;1.27;;
7887;SDS011;3989;48.810;9.208;2023-05-17T01:15:45;1.83;;;1.47;;
7887;SDS011;3989;48.810;9.208;2023-05-17T01:18:19;2.27;;;1.20;;
7887;SDS011;3989;48.810;9.208;2023-05-17T01:20:53;2.03;;;1.37;;
7887;SDS011;3989;48.810;9.208;2023-05-17T01:23:30;1.77;;;1.40;;
7887;SDS011;3989;48.810;9.208;2023-05-17T01:26:29;2.40;;;1.60;;
7887;SDS011;3989;48.810;9.208;2023-05-17T01:29:03;2.00;;;1.20;;
7887;SDS011;3989;48.810;9.208;2023-05-17T01:31:36;1.23;;;0.80;;
7887;SDS011;3989;48.810;9.208;2023-05-17T01:34:05;1.67;;;1.37;;
7887;SDS011;3989;48.810;9.208;2023-05-17T01:36:35;3.17;;;1.30;;
7887;SDS011;3989;48.810;9.208;2023-05-17T01:39:03;5.60;;;1.43;;
7887;SDS011;3989;48.810;9.208;2023-05-17T01:41:35;1.83;;;1.37;;
7887;SDS011;3989;48.810;9.208;2023-05-17T01:44:09;3.80;;;1.30;;
7887;SDS011;3989;48.810;9.208;2023-05-17T01:46:43;2.27;;;1.60;;
7887;SDS011;3989;48.810;9.208;2023-05-17T01:49:15;2.23;;;1.40;;
7887;SDS011;3989;48.810;9.208;2023-05-17T01:51:47;1.20;;;1.10;;
7887;SDS011;3989;48.810;9.208;2023-05-17T01:54:18;2.77;;;1.40;;
7887;SDS011;3989;48.810;9.208;2023-05-17T01:56:54;3.07;;;1.57;;
7887;SDS011;3989;48.810;9.208;2023-05-17T01:59:24;1.33;;;1.07;;
7887;SDS011;3989;48.810;9.208;2023-05-17T02:01:56;2.50;;;1.27;;
7887;SDS011;3989;48.810;9.208;2023-05-17T02:04:30;3.10;;;1.40;;
7887;SDS011;3989;48.810;9.208;2023-05-17T02:07:00;4.17;;;1.57;;
7887;SDS011;3989;48.810;9.208;2023-05-17T02:09:32;1.30;;;1.20;;
7887;SDS011;3989;48.810;9.208;2023-05-17T02:12:03;4.47;;;1.67;;
7887;SDS011;3989;48.810;9.208;2023-05-17T02:14:34;1.83;;;1.53;;
7887;SDS011;3989;48.810;9.208;2023-05-17T02:17:22;3.63;;;1.80;;
7887;SDS011;3989;48.810;9.208;2023-05-17T02:19:52;2.23;;;1.87;;
7887;SDS011;3989;48.810;9.208;2023-05-17T02:22:27;1.90;;;1.80;;
7887;SDS011;3989;48.810;9.208;2023-05-17T02:24:57;1.63;;;1.27;;
7887;SDS011;3989;48.810;9.208;2023-05-17T02:27:26;2.97;;;1.50;;
7887;SDS011;3989;48.810;9.208;2023-05-17T02:29:53;1.70;;;1.60;;
7887;SDS011;3989;48.810;9.208;2023-05-17T02:32:22;6.23;;;1.87;;
7887;SDS011;3989;48.810;9.208;2023-05-17T02:34:52;1.70;;;1.60;;
7887;SDS011;3989;48.810;9.208;2023-05-17T02:37:19;1.67;;;1.53;;
7887;SDS011;3989;48.810;9.208;2023-05-17T02:39:46;2.43;;;1.23;;
7887;SDS011;3989;48.810;9.208;2023-05-17T02:42:16;2.70;;;1.40;;
7887;SDS011;3989;48.810;9.208;2023-05-17T02:44:51;3.53;;;1.90;;
7887;SDS011;3989;48.810;9.208;2023-05-17T02:47:22;1.30;;;1.20;;
7887;SDS011;3989;48.810;9.208;2023-05-17T02:49:52;3.70;;;1.50;;
7887;SDS011;3989;48.810;9.208;2023-05-17T02:52:23;1.63;;;1.53;;
7887;SDS011;3989;48.810;9.208;2023-05-17T02:54:55;3.23;;;1.40;;
7887;SDS011;3989;48.810;9.208;2023-05-17T02:57:22;5.37;;;1.43;;
7887;SDS011;3989;48.810;9.208;2023-05-17T02:59:59;3.90;;;2.80;;
7887;SDS011;3989;48.810;9.208;2023-05-17T03:02:30;1.63;;;1.47;;
7887;SDS011;3989;48.810;9.208;2023-05-17T03:04:59;4.37;;;1.77;;
7887;SDS011;3989;48.810;9.208;2023-05-17T03:07:29;4.40;;;1.50;;
7887;SDS011;3989;48.810;9.208;2023-05-17T03:09:59;2.03;;;1.30;;
7887;SDS011;3989;48.810;9.208;2023-05-17T03:12:36;1.43;;;1.30;;
7887;SDS011;3989;48.810;9.208;2023-05-17T03:15:06;2.57;;;1.37;;
7887;SDS011;3989;48.810;9.208;2023-05-17T03:17:34;3.60;;;2.03;;
7887;SDS011;3989;48.810;9.208;2023-05-17T03:20:01;1.83;;;1.73;;
7887;SDS011;3989;48.810;9.208;2023-05-17T03:22:33;4.93;;;1.70;;
7887;SDS011;3989;48.810;9.208;2023-05-17T03:25:00;1.87;;;1.57;;
7887;SDS011;3989;48.810;9.208;2023-05-17T03:27:29;2.53;;;1.40;;
7887;SDS011;3989;48.810;9.208;2023-05-17T03:29:56;2.33;;;1.43;;
7887;SDS011;3989;48.810;9.208;2023-05-17T03:32:24;3.27;;;1.87;;
7887;SDS011;3989;48.810;9.208;2023-05-17T03:34:52;2.13;;;1.80;;
7887;SDS011;3989;48.810;9.208;2023-05-17T03:37:22;1.83;;;1.73;;
7887;SDS011;3989;48.810;9.208;2023-05-17T03:39:51;5.00;;;1.67;;
7887;SDS011;3989;48.810;9.208;2023-05-17T03:42:19;4.03;;;1.80;;
7887;SDS011;3989;48.810;9.208;2023-05-17T03:44:46;2.90;;;1.87;;
7887;SDS011;3989;48.810;9.208;2023-05-17T03:47:13;5.57;;;2.30;;
7887;SDS011;3989;48.810;9.208;2023-05-17T03:49:42;4.10;;;1.90;;
7887;SDS011;3989;48.810;9.208;2023-05-17T03:52:11;6.37;;;1.80;;
7887;SDS011;3989;48.810;9.208;2023-05-17T03:54:54;4.60;;;1.90;;
7887;SDS011;3989;48.810;9.208;2023-05-17T03:57:24;2.60;;;1.93;;
7887;SDS011;3989;48.810;9.208;2023-05-17T03:59:51;1.63;;;1.53;;
7887;SDS011;3989;48.810;9.208;2023-05-17T04:02:18;4.57;;;1.63;;
7887;SDS011;3989;48.810;9.208;2023-05-17T04:04:49;2.90;;;1.60;;
7887;SDS011;3989;48.810;9.208;2023-05-17T04:07:17;6.93;;;1.97;;
7887;SDS011;3989;48.810;9.208;2023-05-17T04:09:44;2.03;;;1.53;;
7887;SDS011;3989;48.810;9.208;2023-05-17T04:12:11;2.63;;;1.77;;
7887;SDS011;3989;48.810;9.208;2023-05-17T04:14:38;2.47;;;2.07;;
7887;SDS011;3989;48.810;9.208;2023-05-17T04:17:05;4.57;;;2.03;;
7887;SDS011;3989;48.810;9.208;2023-05-17T04:19:32;3.43;;;1.63;;
7887;SDS011;3989;48.810;9.208;2023-05-17T04:22:01;2.00;;;1.80;;
7887;SDS011;3989;48.810;9.208;2023-05-17T04:24:28;3.47;;;1.67;;
7887;SDS011;3989;48.810;9.208;2023-05-17T04:26:55;5.60;;;2.00;;
7887;SDS011;3989;48.810;9.208;2023-05-17T04:29:23;4.43;;;2.13;;
7887;SDS011;3989;48.810;9.208;2023-05-17T04:31:50;5.10;;;1.93;;
7887;SDS011;3989;48.810;9.208;2023-05-17T04:34:17;4.20;;;1.67;;
7887;SDS011;3989;48.810;9.208;2023-05-17T04:36:46;2.63;;;1.60;;
7887;SDS011;3989;48.810;9.208;2023-05-17T04:46:54;3.13;;;1.70;;
7887;SDS011;3989;48.810;9.208;2023-05-17T04:49:20;3.47;;;1.60;;
7887;SDS011;3989;48.810;9.208;2023-05-17T04:51:51;2.80;;;1.40;;
7887;SDS011;3989;48.810;9.208;2023-05-17T04:54:18;2.47;;;1.63;;
7887;SDS011;3989;48.810;9.208;2023-05-17T04:56:47;1.70;;;1.50;;
7887;SDS011;3989;48.810;9.208;2023-05-17T04:59:16;2.77;;;1.83;;
7887;SDS011;3989;48.810;9.208;2023-05-17T05:01:43;3.67;;;1.83;;
7887;SDS011;3989;48.810;9.208;2023-05-17T05:04:15;3.80;;;1.40;;
7887;SDS011;3989;48.810;9.208;2023-05-17T05:06:44;1.90;;;1.67;;
7887;SDS011;3989;48.810;9.208;2023-05-17T05:09:11;4.47;;;2.37;;
7887;SDS011;3989;48.810;9.208;2023-05-17T05:11:41;4.20;;;2.30;;
7887;SDS011;3989;48.810;9.208;2023-05-17T05:14:08;3.87;;;2.20;;
7887;SDS011;3989;48.810;9.208;2023-05-17T05:16:34;3.30;;;2.27;;
7887;SDS011;3989;48.810;9.208;2023-05-17T05:19:03;5.77;;;2.40;;
7887;SDS011;3989;48.810;9.208;2023-05-17T05:21:32;4.90;;;2.13;;
7887;SDS011;3989;48.810;9.208;2023-05-17T05:24:00;3.00;;;1.60;;
7887;SDS011;3989;48.810;9.208;2023-05-17T05:26:28;2.30;;;1.73;;
7887;SDS011;3989;48.810;9.208;2023-05-17T05:28:54;1.77;;;1.43;;
7887;SDS011;3989;48.810;9.208;2023-05-17T05:31:22;3.30;;;1.63;;
7887;SDS011;3989;48.810;9.208;2023-05-17T05:33:48;3.60;;;1.60;;
7887;SDS011;3989;48.810;9.208;2023-05-17T05:36:15;1.77;;;1.67;;
7887;SDS011;3989;48.810;9.208;2023-05-17T05:41:49;2.27;;;1.60;;
7887;SDS011;3989;48.810;9.208;2023-05-17T05:44:17;4.17;;;1.70;;
7887;SDS011;3989;48.810;9.208;2023-05-17T05:46:44;1.90;;;1.80;;
7887;SDS011;3989;48.810;9.208;2023-05-17T05:49:15;1.60;;;1.50;;
7887;SDS011;3989;48.810;9.208;2023-05-17T05:51:44;1.73;;;1.63;;
7887;SDS011;3989;48.810;9.208;2023-05-17T05:54:12;1.63;;;1.53;;
7887;SDS011;3989;48.810;9.208;2023-05-17T05:56:40;4.20;;;1.50;;
7887;SDS011;3989;48.810;9.208;2023-05-17T05:59:08;2.23;;;1.63;;
7887;SDS011;3989;48.810;9.208;2023-05-17T06:01:35;6.30;;;1.80;;
7887;SDS011;3989;48.810;9.208;2023-05-17T06:04:02;2.47;;;1.50;;
7887;SDS011;3989;48.810;9.208;2023-05-17T06:06:29;2.97;;;1.47;;
7887;SDS011;3989;48.810;9.208;2023-05-17T06:08:56;3.10;;;1.97;;
7887;SDS011;3989;48.810;9.208;2023-05-17T06:11:24;4.73;;;1.90;;
7887;SDS011;3989;48.810;9.208;2023-05-17T06:13:51;1.73;;;1.63;;
7887;SDS011;3989;48.810;9.208;2023-05-17T06:16:19;5.70;;;2.00;;
7887;SDS011;3989;48.810;9.208;2023-05-17T06:18:46;2.43;;;1.97;;
7887;SDS011;3989;48.810;9.208;2023-05-17T06:21:13;2.63;;;2.00;;
7887;SDS011;3989;48.810;9.208;2023-05-17T06:23:40;4.90;;;2.17;;
7887;SDS011;3989;48.810;9.208;2023-05-17T06:26:06;2.63;;;1.70;;
7887;SDS011;3989;48.810;9.208;2023-05-17T06:28:34;2.40;;;1.90;;
7887;SDS011;3989;48.810;9.208;2023-05-17T06:31:01;2.80;;;1.87;;
7887;SDS011;3989;48.810;9.208;2023-05-17T06:33:29;3.13;;;2.07;;
7887;SDS011;3989;48.810;9.208;2023-05-17T06:35:56;1.90;;;1.70;;
7887;SDS011;3989;48.810;9.208;2023-05-17T06:38:23;2.10;;;1.87;;
7887;SDS011;3989;48.810;9.208;2023-05-17T06:40:50;7.13;;;2.70;;
7887;SDS011;3989;48.810;9.208;2023-05-17T06:43:17;2.37;;;1.73;;
7887;SDS011;3989;48.810;9.208;2023-05-17T06:45:44;4.17;;;2.20;;
7887;SDS011;3989;48.810;9.208;2023-05-17T06:48:11;3.33;;;1.90;;
7887;SDS011;3989;48.810;9.208;2023-05-17T06:50:39;4.53;;;1.70;;
7887;SDS011;3989;48.810;9.208;2023-05-17T06:53:05;4.80;;;2.00;;
7887;SDS011;3989;48.810;9.208;2023-05-17T06:55:32;7.57;;;1.90;;
7887;SDS011;3989;48.810;9.208;2023-05-17T06:57:58;3.23;;;2.13;;
7887;SDS011;3989;48.810;9.208;2023-05-17T07:00:25;3.63;;;1.97;;
7887;SDS011;3989;48.810;9.208;2023-05-17T07:02:52;6.13;;;2.17;;
7887;SDS011;3989;48.810;9.208;2023-05-17T07:05:19;7.37;;;2.20;;
7887;SDS011;3989;48.810;9.208;2023-05-17T07:07:47;3.93;;;2.70;;
7887;SDS011;3989;48.810;9.208;2023-05-17T07:10:14;3.47;;;2.17;;
7887;SDS011;3989;48.810;9.208;2023-05-17T07:12:41;4.43;;;2.57;;
7887;SDS011;3989;48.810;9.208;2023-05-17T07:15:08;4.70;;;2.57;;
7887;SDS011;3989;48.810;9.208;2023-05-17T07:17:35;3.53;;;2.00;;
7887;SDS011;3989;48.810;9.208;2023-05-17T07:20:02;3.50;;;2.50;;
7887;SDS011;3989;48.810;9.208;2023-05-17T07:22:30;4.60;;;2.47;;
7887;SDS011;3989;48.810;9.208;2023-05-17T07:24:58;4.40;;;2.53;;
7887;SDS011;3989;48.810;9.208;2023-05-17T07:27:24;2.93;;;2.23;;
7887;SDS011;3989;48.810;9.208;2023-05-17T07:29:51;2.97;;;2.07;;
7887;SDS011;3989;48.810;9.208;2023-05-17T07:32:18;3.37;;;2.10;;
7887;SDS011;3989;48.810;9.208;2023-05-17T07:34:44;4.17;;;2.30;;
7887;SDS011;3989;48.810;9.208;2023-05-17T07:37:11;3.27;;;2.87;;
7887;SDS011;3989;48.810;9.208;2023-05-17T07:39:38;5.00;;;2.70;;
7887;SDS011;3989;48.810;9.208;2023-05-17T07:42:06;2.13;;;1.90;;
7887;SDS011;3989;48.810;9.208;2023-05-17T07:44:33;2.83;;;2.37;;
7887;SDS011;3989;48.810;9.208;2023-05-17T07:46:59;7.20;;;2.43;;
7887;SDS011;3989;48.810;9.208;2023-05-17T07:49:26;3.37;;;2.40;;
7887;SDS011;3989;48.810;9.208;2023-05-17T07:51:53;6.20;;;2.30;;
7887;SDS011;3989;48.810;9.208;2023-05-17T07:54:23;5.17;;;2.83;;
7887;SDS011;3989;48.810;9.208;2023-05-17T07:56:52;6.63;;;2.40;;
7887;SDS011;3989;48.810;9.208;2023-05-17T07:59:20;6.23;;;3.00;;
7887;SDS011;3989;48.810;9.208;2023-05-17T08:01:47;4.53;;;2.70;;
7887;SDS011;3989;48.810;9.208;2023-05-17T08:04:14;2.60;;;2.40;;
7887;SDS011;3989;48.810;9.208;2023-05-17T08:06:41;4.77;;;2.73;;
7887;SDS011;3989;48.810;9.208;2023-05-17T08:09:09;2.87;;;2.10;;
7887;SDS011;3989;48.810;9.208;2023-05-17T08:11:36;5.63;;;2.57;;
7887;SDS011;3989;48.810;9.208;2023-05-17T08:14:09;3.83;;;2.43;;
7887;SDS011;3989;48.810;9.208;2023-05-17T08:16:38;4.60;;;2.40;;
7887;SDS011;3989;48.810;9.208;2023-05-17T08:19:04;3.07;;;2.60;;
7887;SDS011;3989;48.810;9.208;2023-05-17T08:21:31;3.10;;;2.80;;
7887;SDS011;3989;48.810;9.208;2023-05-17T08:23:57;2.80;;;2.60;;
7887;SDS011;3989;48.810;9.208;2023-05-17T08:26:24;3.43;;;2.50;;
7887;SDS011;3989;48.810;9.208;2023-05-17T08:28:51;3.70;;;2.43;;
7887;SDS011;3989;48.810;9.208;2023-05-17T08:31:17;5.57;;;2.50;;
7887;SDS011;3989;48.810;9.208;2023-05-17T08:33:46;3.30;;;2.13;;
7887;SDS011;3989;48.810;9.208;2023-05-17T08:36:12;3.07;;;2.70;;
7887;SDS011;3989;48.810;9.208;2023-05-17T08:38:39;2.30;;;2.10;;
7887;SDS011;3989;48.810;9.208;2023-05-17T08:41:07;4.33;;;2.60;;
7887;SDS011;3989;48.810;9.208;2023-05-17T08:43:34;3.97;;;2.70;;
7887;SDS011;3989;48.810;9.208;2023-05-17T08:46:02;4.90;;;2.40;;
7887;SDS011;3989;48.810;9.208;2023-05-17T08:48:29;5.37;;;2.80;;
7887;SDS011;3989;48.810;9.208;2023-05-17T08:50:57;5.63;;;2.90;;
7887;SDS011;3989;48.810;9.208;2023-05-17T08:53:25;2.43;;;2.23;;
7887;SDS011;3989;48.810;9.208;2023-05-17T08:55:52;3.33;;;3.00;;
7887;SDS011;3989;48.810;9.208;2023-05-17T08:58:24;4.43;;;2.53;;
7887;SDS011;3989;48.810;9.208;2023-05-17T09:00:53;2.87;;;2.60;;
7887;SDS011;3989;48.810;9.208;2023-05-17T09:03:21;3.47;;;2.53;;
7887;SDS011;3989;48.810;9.208;2023-05-17T09:05:49;3.47;;;2.63;;
7887;SDS011;3989;48.810;9.208;2023-05-17T09:08:19;5.13;;;2.13;;
7887;SDS011;3989;48.810;9.208;2023-05-17T09:10:47;4.23;;;2.67;;
7887;SDS011;3989;48.810;9.208;2023-05-17T09:13:14;6.77;;;2.90;;
7887;SDS011;3989;48.810;9.208;2023-05-17T09:15:41;7.37;;;2.77;;
7887;SDS011;3989;48.810;9.208;2023-05-17T09:18:08;5.07;;;2.83;;
7887;SDS011;3989;48.810;9.208;2023-05-17T09:20:36;3.73;;;2.80;;
7887;SDS011;3989;48.810;9.208;2023-05-17T09:23:04;3.97;;;3.00;;
7887;SDS011;3989;48.810;9.208;2023-05-17T09:25:35;2.80;;;2.33;;
7887;SDS011;3989;48.810;9.208;2023-05-17T09:28:03;2.90;;;2.47;;
7887;SDS011;3989;48.810;9.208;2023-05-17T09:30:32;4.63;;;2.70;;
7887;SDS011;3989;48.810;9.208;2023-05-17T09:33:03;2.77;;;2.57;;
7887;SDS011;3989;48.810;9.208;2023-05-17T09:35:31;2.93;;;2.63;;
7887;SDS011;3989;48.810;9.208;2023-05-17T09:38:04;2.87;;;2.60;;
7887;SDS011;3989;48.810;9.208;2023-05-17T09:40:31;3.37;;;2.40;;
7887;SDS011;3989;48.810;9.208;2023-05-17T09:43:00;2.50;;;2.27;;
7887;SDS011;3989;48.810;9.208;2023-05-17T09:45:27;3.50;;;2.20;;
7887;SDS011;3989;48.810;9.208;2023-05-17T09:47:54;5.10;;;2.63;;
7887;SDS011;3989;48.810;9.208;2023-05-17T09:50:21;3.97;;;2.60;;
7887;SDS011;3989;48.810;9.208;2023-05-17T09:52:48;4.07;;;2.93;;
7887;SDS011;3989;48.810;9.208;2023-05-17T09:55:14;3.00;;;2.60;;
7887;SDS011;3989;48.810;9.208;2023-05-17T09:57:41;5.93;;;2.70;;
7887;SDS011;3989;48.810;9.208;2023-05-17T10:00:10;2.80;;;2.60;;
7887;SDS011;3989;48.810;9.208;2023-05-17T10:02:37;4.07;;;2.50;;
7887;SDS011;3989;48.810;9.208;2023-05-17T10:05:07;3.57;;;2.23;;
7887;SDS011;3989;48.810;9.208;2023-05-17T10:07:36;4.07;;;2.60;;
7887;SDS011;3989;48.810;9.208;2023-05-17T10:10:03;2.97;;;2.20;;
7887;SDS011;3989;48.810;9.208;2023-05-17T10:12:32;5.10;;;2.72;;
7887;SDS011;3989;48.810;9.208;2023-05-17T10:15:00;3.67;;;2.77;;
7887;SDS011;3989;48.810;9.208;2023-05-17T10:17:28;3.80;;;2.57;;
7887;SDS011;3989;48.810;9.208;2023-05-17T10:19:56;2.50;;;2.30;;
7887;SDS011;3989;48.810;9.208;2023-05-17T10:22:23;2.53;;;2.40;;
7887;SDS011;3989;48.810;9.208;2023-05-17T10:24:57;3.90;;;3.10;;
7887;SDS011;3989;48.810;9.208;2023-05-17T10:27:24;4.37;;;2.73;;
7887;SDS011;3989;48.810;9.208;2023-05-17T10:29:51;3.07;;;2.47;;
7887;SDS011;3989;48.810;9.208;2023-05-17T10:32:20;5.40;;;2.70;;
7887;SDS011;3989;48.810;9.208;2023-05-17T10:34:52;5.40;;;2.70;;
7887;SDS011;3989;48.810;9.208;2023-05-17T10:37:20;2.97;;;2.67;;
7887;SDS011;3989;48.810;9.208;2023-05-17T10:39:48;3.20;;;2.70;;
7887;SDS011;3989;48.810;9.208;2023-05-17T10:42:16;3.05;;;2.25;;
7887;SDS011;3989;48.810;9.208;2023-05-17T10:44:44;3.15;;;2.45;;
7887;SDS011;3989;48.810;9.208;2023-05-17T10:47:11;3.28;;;2.72;;
7887;SDS011;3989;48.810;9.208;2023-05-17T10:49:55;3.72;;;2.85;;
7887;SDS011;3989;48.810;9.208;2023-05-17T10:52:22;4.32;;;2.85;;
7887;SDS011;3989;48.810;9.208;2023-05-17T10:55:04;2.97;;;2.20;;
7887;SDS011;3989;48.810;9.208;2023-05-17T10:57:34;3.65;;;2.78;;
7887;SDS011;3989;48.810;9.208;2023-05-17T11:00:03;3.60;;;2.25;;
7887;SDS011;3989;48.810;9.208;2023-05-17T11:02:32;5.25;;;2.92;;
7887;SDS011;3989;48.810;9.208;2023-05-17T11:05:01;3.05;;;2.42;;
7887;SDS011;3989;48.810;9.208;2023-05-17T11:07:28;3.20;;;2.90;;
7887;SDS011;3989;48.810;9.208;2023-05-17T11:10:02;5.22;;;2.92;;
7887;SDS011;3989;48.810;9.208;2023-05-17T11:12:32;3.88;;;2.50;;
7887;SDS011;3989;48.810;9.208;2023-05-17T11:15:01;4.18;;;2.65;;
7887;SDS011;3989;48.810;9.208;2023-05-17T11:17:33;2.88;;;2.65;;
7887;SDS011;3989;48.810;9.208;2023-05-17T11:20:02;4.53;;;3.10;;
7887;SDS011;3989;48.810;9.208;2023-05-17T11:22:36;4.32;;;2.50;;
7887;SDS011;3989;48.810;9.208;2023-05-17T11:25:05;5.60;;;2.50;;
7887;SDS011;3989;48.810;9.208;2023-05-17T11:27:37;3.37;;;3.00;;
7887;SDS011;3989;48.810;9.208;2023-05-17T11:30:09;2.80;;;2.57;;
7887;SDS011;3989;48.810;9.208;2023-05-17T11:32:48;3.87;;;2.60;;
7887;SDS011;3989;48.810;9.208;2023-05-17T11:35:17;3.47;;;2.43;;
7887;SDS011;3989;48.810;9.208;2023-05-17T11:37:44;6.27;;;2.60;;
7887;SDS011;3989;48.810;9.208;2023-05-17T11:40:11;4.37;;;2.90;;
7887;SDS011;3989;48.810;9.208;2023-05-17T11:42:39;3.77;;;2.90;;
7887;SDS011;3989;48.810;9.208;2023-05-17T11:45:07;3.83;;;2.53;;
7887;SDS011;3989;48.810;9.208;2023-05-17T11:47:33;5.00;;;2.47;;
7887;SDS011;3989;48.810;9.208;2023-05-17T11:50:04;5.43;;;2.80;;
7887;SDS011;3989;48.810;9.208;2023-05-17T11:52:34;3.97;;;2.60;;
7887;SDS011;3989;48.810;9.208;2023-05-17T11:55:00;4.80;;;2.73;;
7887;SDS011;3989;48.810;9.208;2023-05-17T11:57:29;3.40;;;2.30;;
7887;SDS011;3989;48.810;9.208;2023-05-17T11:59:59;2.30;;;2.10;;
7887;SDS011;3989;48.810;9.208;2023-05-17T12:02:27;4.20;;;2.53;;
7887;SDS011;3989;48.810;9.208;2023-05-17T12:04:54;3.90;;;2.57;;
7887;SDS011;3989;48.810;9.208;2023-05-17T12:07:21;3.17;;;2.77;;
7887;SDS011;3989;48.810;9.208;2023-05-17T12:09:51;3.10;;;2.30;;
7887;SDS011;3989;48.810;9.208;2023-05-17T12:12:17;2.63;;;2.40;;
7887;SDS011;3989;48.810;9.208;2023-05-17T12:14:46;3.10;;;2.40;;
7887;SDS011;3989;48.810;9.208;2023-05-17T12:17:17;7.20;;;2.47;;
7887;SDS011;3989;48.810;9.208;2023-05-17T12:19:52;7.00;;;2.70;;
7887;SDS011;3989;48.810;9.208;2023-05-17T12:22:19;4.43;;;2.40;;
7887;SDS011;3989;48.810;9.208;2023-05-17T12:24:46;4.27;;;2.50;;
7887;SDS011;3989;48.810;9.208;2023-05-17T12:27:14;3.53;;;2.30;;
7887;SDS011;3989;48.810;9.208;2023-05-17T12:29:50;1.87;;;1.77;;
7887;SDS011;3989;48.810;9.208;2023-05-17T12:32:17;3.07;;;2.30;;
7887;SDS011;3989;48.810;9.208;2023-05-17T12:34:44;5.00;;;2.67;;
7887;SDS011;3989;48.810;9.208;2023-05-17T12:37:11;3.65;;;1.92;;
7887;SDS011;3989;48.810;9.208;2023-05-17T12:39:38;5.17;;;2.40;;
7887;SDS011;3989;48.810;9.208;2023-05-17T12:42:06;5.82;;;2.30;;
7887;SDS011;3989;48.810;9.208;2023-05-17T12:44:35;3.30;;;2.10;;
7887;SDS011;3989;48.810;9.208;2023-05-17T12:47:02;2.58;;;2.38;;
7887;SDS011;3989;48.810;9.208;2023-05-17T12:49:28;2.63;;;1.95;;
7887;SDS011;3989;48.810;9.208;2023-05-17T12:51:55;3.70;;;2.45;;
7887;SDS011;3989;48.810;9.208;2023-05-17T12:54:28;4.23;;;2.60;;
7887;SDS011;3989;48.810;9.208;2023-05-17T12:56:55;3.00;;;2.60;;
7887;SDS011;3989;48.810;9.208;2023-05-17T12:59:22;5.43;;;2.53;;
7887;SDS011;3989;48.810;9.208;2023-05-17T13:01:51;3.47;;;3.17;;
7887;SDS011;3989;48.810;9.208;2023-05-17T13:04:29;5.93;;;2.35;;
7887;SDS011;3989;48.810;9.208;2023-05-17T13:06:58;2.88;;;2.38;;
7887;SDS011;3989;48.810;9.208;2023-05-17T13:09:26;3.70;;;2.50;;
7887;SDS011;3989;48.810;9.208;2023-05-17T13:11:55;5.18;;;2.65;;
7887;SDS011;3989;48.810;9.208;2023-05-17T13:14:36;2.80;;;2.20;;
7887;SDS011;3989;48.810;9.208;2023-05-17T13:17:05;3.95;;;2.40;;
7887;SDS011;3989;48.810;9.208;2023-05-17T13:19:35;3.63;;;2.17;;
7887;SDS011;3989;48.810;9.208;2023-05-17T13:22:02;3.47;;;2.40;;
7887;SDS011;3989;48.810;9.208;2023-05-17T13:24:30;3.72;;;2.47;;
7887;SDS011;3989;48.810;9.208;2023-05-17T13:26:59;5.63;;;2.80;;
7887;SDS011;3989;48.810;9.208;2023-05-17T13:29:26;3.35;;;3.05;;
7887;SDS011;3989;48.810;9.208;2023-05-17T13:31:53;5.00;;;2.50;;
7887;SDS011;3989;48.810;9.208;2023-05-17T13:34:21;2.78;;;2.17;;
7887;SDS011;3989;48.810;9.208;2023-05-17T13:36:48;2.80;;;2.60;;
7887;SDS011;3989;48.810;9.208;2023-05-17T13:39:15;3.22;;;2.10;;
7887;SDS011;3989;48.810;9.208;2023-05-17T13:41:42;2.83;;;2.40;;
7887;SDS011;3989;48.810;9.208;2023-05-17T13:44:09;3.92;;;2.60;;
7887;SDS011;3989;48.810;9.208;2023-05-17T13:46:36;4.30;;;2.45;;
7887;SDS011;3989;48.810;9.208;2023-05-17T13:49:03;2.53;;;2.30;;
7887;SDS011;3989;48.810;9.208;2023-05-17T13:54:17;2.65;;;2.45;;
7887;SDS011;3989;48.810;9.208;2023-05-17T13:56:44;4.07;;;2.70;;
7887;SDS011;3989;48.810;9.208;2023-05-17T13:59:11;5.95;;;2.70;;
7887;SDS011;3989;48.810;9.208;2023-05-17T14:01:38;2.65;;;2.45;;
7887;SDS011;3989;48.810;9.208;2023-05-17T14:04:05;3.47;;;2.40;;
7887;SDS011;3989;48.810;9.208;2023-05-17T14:06:32;2.90;;;2.35;;
7887;SDS011;3989;48.810;9.208;2023-05-17T14:09:00;4.38;;;2.53;;
7887;SDS011;3989;48.810;9.208;2023-05-17T14:11:28;2.67;;;2.47;;
7887;SDS011;3989;48.810;9.208;2023-05-17T14:13:54;2.28;;;2.10;;
7887;SDS011;3989;48.810;9.208;2023-05-17T14:16:21;4.22;;;2.70;;
7887;SDS011;3989;48.810;9.208;2023-05-17T14:18:48;3.83;;;2.65;;
7887;SDS011;3989;48.810;9.208;2023-05-17T14:21:14;2.53;;;2.33;;
7887;SDS011;3989;48.810;9.208;2023-05-17T14:23:41;3.10;;;2.35;;
7887;SDS011;3989;48.810;9.208;2023-05-17T14:26:09;3.58;;;2.70;;
7887;SDS011;3989;48.810;9.208;2023-05-17T14:28:35;2.47;;;2.28;;
7887;SDS011;3989;48.810;9.208;2023-05-17T14:31:03;2.55;;;2.35;;
7887;SDS011;3989;48.810;9.208;2023-05-17T14:33:32;2.53;;;2.15;;
7887;SDS011;3989;48.810;9.208;2023-05-17T14:35:58;3.22;;;2.83;;
7887;SDS011;3989;48.810;9.208;2023-05-17T14:38:25;3.17;;;2.53;;
7887;SDS011;3989;48.810;9.208;2023-05-17T14:40:51;4.10;;;2.60;;
7887;SDS011;3989;48.810;9.208;2023-05-17T14:43:19;3.73;;;2.40;;
7887;SDS011;3989;48.810;9.208;2023-05-17T14:45:46;2.83;;;2.30;;
7887;SDS011;3989;48.810;9.208;2023-05-17T14:48:13;2.90;;;2.47;;
7887;SDS011;3989;48.810;9.208;2023-05-17T14:50:40;6.27;;;2.50;;
7887;SDS011;3989;48.810;9.208;2023-05-17T14:53:06;4.17;;;2.73;;
7887;SDS011;3989;48.810;9.208;2023-05-17T14:55:33;3.13;;;2.87;;
7887;SDS011;3989;48.810;9.208;2023-05-17T14:57:59;4.43;;;2.57;;
7887;SDS011;3989;48.810;9.208;2023-05-17T15:00:31;3.23;;;2.80;;
7887;SDS011;3989;48.810;9.208;2023-05-17T15:02:58;4.57;;;2.90;;
7887;SDS011;3989;48.810;9.208;2023-05-17T15:05:26;3.30;;;2.37;;
7887;SDS011;3989;48.810;9.208;2023-05-17T15:07:53;3.10;;;2.50;;
7887;SDS011;3989;48.810;9.208;2023-05-17T15:10:19;3.67;;;2.70;;
7887;SDS011;3989;48.810;9.208;2023-05-17T15:12:46;5.57;;;2.80;;
7887;SDS011;3989;48.810;9.208;2023-05-17T15:15:14;5.20;;;2.60;;
7887;SDS011;3989;48.810;9.208;2023-05-17T15:17:42;2.60;;;2.40;;
7887;SDS011;3989;48.810;9.208;2023-05-17T15:20:09;6.43;;;2.80;;
7887;SDS011;3989;48.810;9.208;2023-05-17T15:22:36;4.33;;;2.93;;
7887;SDS011;3989;48.810;9.208;2023-05-17T15:25:03;3.20;;;2.80;;
7887;SDS011;3989;48.810;9.208;2023-05-17T15:27:30;3.03;;;2.60;;
7887;SDS011;3989;48.810;9.208;2023-05-17T15:29:57;3.83;;;2.37;;
7887;SDS011;3989;48.810;9.208;2023-05-17T15:32:24;3.20;;;2.47;;
7887;SDS011;3989;48.810;9.208;2023-05-17T15:34:52;2.80;;;2.60;;
7887;SDS011;3989;48.810;9.208;2023-05-17T15:37:19;3.20;;;2.90;;